createdAt,value
2023-02-20T00:02:18.594Z,1.70
2023-02-20T00:04:47.844Z,1.50
2023-02-20T00:07:17.040Z,1.80
2023-02-20T00:09:46.112Z,1.80
2023-02-20T00:12:19.525Z,2.50
2023-02-20T00:14:46.146Z,1.83
2023-02-20T00:17:12.768Z,1.57
2023-02-20T00:19:41.713Z,1.93
2023-02-20T00:22:13.117Z,2.17
2023-02-20T00:24:39.733Z,2.30
2023-02-20T00:27:11.929Z,1.63
2023-02-20T00:29:40.897Z,1.87
2023-02-20T00:32:10.168Z,1.60
2023-02-20T00:34:39.074Z,2.00
2023-02-20T00:37:08.863Z,2.17
2023-02-20T00:39:37.904Z,1.93
2023-02-20T00:42:08.441Z,2.33
2023-02-20T00:44:37.722Z,1.77
2023-02-20T00:47:04.621Z,2.30
2023-02-20T00:49:35.953Z,1.90
2023-02-20T00:52:16.479Z,2.37
2023-02-20T00:54:43.121Z,1.90
2023-02-20T00:57:12.421Z,2.40
2023-02-20T00:59:43.946Z,4.77
2023-02-20T01:02:15.861Z,2.90
2023-02-20T01:04:47.446Z,1.80
2023-02-20T01:07:18.988Z,1.97
2023-02-20T01:09:45.689Z,1.60
2023-02-20T01:12:17.682Z,1.93
2023-02-20T01:14:46.410Z,1.87
2023-02-20T01:17:14.286Z,1.90
2023-02-20T01:19:46.911Z,1.90
2023-02-20T01:22:13.545Z,1.63
2023-02-20T01:24:43.573Z,1.80
2023-02-20T01:27:10.435Z,1.60
2023-02-20T01:29:39.368Z,1.60
2023-02-20T01:32:12.651Z,2.97
2023-02-20T01:34:41.833Z,2.00
2023-02-20T01:37:14.341Z,1.50
2023-02-20T01:39:46.748Z,1.80
2023-02-20T01:42:24.576Z,1.73
2023-02-20T01:44:54.885Z,1.93
2023-02-20T01:47:24.190Z,1.70
2023-02-20T01:50:00.713Z,1.90
2023-02-20T01:52:33.884Z,2.00
2023-02-20T01:55:11.544Z,2.50
2023-02-20T01:57:48.430Z,1.70
2023-02-20T02:00:20.168Z,1.70
2023-02-20T02:02:57.320Z,1.90
2023-02-20T02:05:31.363Z,2.50
2023-02-20T02:08:03.282Z,2.17
2023-02-20T02:10:59.011Z,2.20
2023-02-20T02:13:29.476Z,2.07
2023-02-20T02:16:40.174Z,2.17
2023-02-20T02:19:18.540Z,2.10
2023-02-20T02:22:38.572Z,2.03
2023-02-20T02:25:32.909Z,1.70
2023-02-20T02:28:21.134Z,2.00
2023-02-20T02:31:11.046Z,1.50
2023-02-20T02:33:52.876Z,2.03
2023-02-20T02:36:24.952Z,3.13
2023-02-20T02:39:03.802Z,2.20
2023-02-20T02:41:39.637Z,2.30
2023-02-20T02:44:21.872Z,1.97
2023-02-20T02:46:48.468Z,2.43
2023-02-20T02:49:25.546Z,2.20
2023-02-20T02:51:57.183Z,2.47
2023-02-20T02:54:28.067Z,1.87
2023-02-20T02:57:26.854Z,2.30
2023-02-20T03:00:07.720Z,2.50
2023-02-20T03:02:42.177Z,2.20
2023-02-20T03:05:17.392Z,1.50
2023-02-20T03:07:47.160Z,2.30
2023-02-20T03:10:31.698Z,2.30
2023-02-20T03:13:04.601Z,2.40
2023-02-20T03:15:49.183Z,1.47
2023-02-20T03:18:32.147Z,1.97
2023-02-20T03:21:10.669Z,2.50
2023-02-20T03:23:45.226Z,2.40
2023-02-20T03:26:19.977Z,2.40
2023-02-20T03:28:59.350Z,2.40
2023-02-20T03:31:35.569Z,2.67
2023-02-20T03:34:45.076Z,2.50
2023-02-20T03:37:39.832Z,2.80
2023-02-20T03:40:34.213Z,2.13
2023-02-20T03:43:23.296Z,2.17
2023-02-20T03:46:07.073Z,2.03
2023-02-20T03:48:46.245Z,2.60
2023-02-20T03:51:17.324Z,2.00
2023-02-20T03:53:56.231Z,2.80
2023-02-20T03:56:31.881Z,2.07
2023-02-20T03:59:14.282Z,2.57
2023-02-20T04:01:46.830Z,2.17
2023-02-20T04:04:21.480Z,2.17
2023-02-20T04:06:51.695Z,2.83
2023-02-20T04:09:27.696Z,2.37
2023-02-20T04:12:05.637Z,2.63
2023-02-20T04:14:36.243Z,2.20
2023-02-20T04:17:12.009Z,2.27
2023-02-20T04:19:41.344Z,2.60
2023-02-20T04:22:16.929Z,2.33
2023-02-20T04:24:53.574Z,2.33
2023-02-20T04:27:23.228Z,2.33
2023-02-20T04:29:57.342Z,2.50
2023-02-20T04:32:24.563Z,2.33
2023-02-20T04:34:54.940Z,2.30
2023-02-20T04:37:21.758Z,3.03
2023-02-20T04:39:54.913Z,2.40
2023-02-20T04:42:26.281Z,2.50
2023-02-20T04:44:56.241Z,3.80
2023-02-20T04:47:22.919Z,2.40
2023-02-20T04:49:49.642Z,2.33
2023-02-20T04:52:25.969Z,2.70
2023-02-20T04:54:56.551Z,2.40
2023-02-20T04:57:26.077Z,2.60
2023-02-20T04:59:52.770Z,2.80
2023-02-20T05:02:19.555Z,2.80
2023-02-20T05:04:53.340Z,3.00
2023-02-20T05:07:24.643Z,3.47
2023-02-20T05:09:51.254Z,2.77
2023-02-20T05:12:20.440Z,2.77
2023-02-20T05:14:52.894Z,2.70
2023-02-20T05:17:22.431Z,3.23
2023-02-20T05:19:51.435Z,3.10
2023-02-20T05:22:20.251Z,2.60
2023-02-20T05:24:48.639Z,2.83
2023-02-20T05:27:25.505Z,2.53
2023-02-20T05:29:58.877Z,1.87
2023-02-20T05:32:28.201Z,3.80
2023-02-20T05:35:00.219Z,2.87
2023-02-20T05:37:33.363Z,2.90
2023-02-20T05:40:00.258Z,3.73
2023-02-20T05:42:27.029Z,3.27
2023-02-20T05:44:55.936Z,2.77
2023-02-20T05:47:24.904Z,2.93
2023-02-20T05:49:51.573Z,2.80
2023-02-20T05:52:23.362Z,2.60
2023-02-20T05:54:50.007Z,3.13
2023-02-20T05:57:21.177Z,2.70
2023-02-20T05:59:52.316Z,2.70
2023-02-20T06:02:21.431Z,2.80
2023-02-20T06:04:50.723Z,2.90
2023-02-20T06:07:19.905Z,2.23
2023-02-20T06:09:49.871Z,3.80
2023-02-20T06:12:18.792Z,3.17
2023-02-20T06:14:45.410Z,3.03
2023-02-20T06:17:12.063Z,2.87
2023-02-20T06:19:43.524Z,3.77
2023-02-20T06:22:10.193Z,3.47
2023-02-20T06:24:36.822Z,3.43
2023-02-20T06:27:08.666Z,3.80
2023-02-20T06:29:35.331Z,3.07
2023-02-20T06:32:02.068Z,3.40
2023-02-20T06:34:33.708Z,3.83
2023-02-20T06:37:04.431Z,3.33
2023-02-20T06:39:32.933Z,2.97
2023-02-20T06:42:07.879Z,3.50
2023-02-20T06:44:34.607Z,3.40
2023-02-20T06:47:09.004Z,2.90
2023-02-20T06:49:36.950Z,2.67
2023-02-20T06:52:05.394Z,3.10
2023-02-20T06:54:34.614Z,2.97
2023-02-20T06:57:06.442Z,3.00
2023-02-20T06:59:39.823Z,2.90
2023-02-20T07:02:11.931Z,3.10
2023-02-20T07:04:38.705Z,2.60
2023-02-20T07:07:07.602Z,2.70
2023-02-20T07:09:36.836Z,2.53
2023-02-20T07:12:05.956Z,3.30
2023-02-20T07:14:32.609Z,2.70
2023-02-20T07:16:59.325Z,2.93
2023-02-20T07:19:28.295Z,3.00
2023-02-20T07:21:57.498Z,2.13
2023-02-20T07:24:26.382Z,2.17
2023-02-20T07:29:25.049Z,2.40
2023-02-20T07:31:57.257Z,2.77
2023-02-20T07:34:23.942Z,2.53
2023-02-20T07:36:53.420Z,2.80
2023-02-20T07:39:22.422Z,2.70
2023-02-20T07:41:51.961Z,2.77
2023-02-20T07:44:41.344Z,2.80
2023-02-20T07:47:10.417Z,2.73
2023-02-20T07:49:42.270Z,2.37
2023-02-20T07:52:08.951Z,2.80
2023-02-20T07:54:38.011Z,3.60
2023-02-20T07:57:09.957Z,2.90
2023-02-20T07:59:38.947Z,2.60
2023-02-20T08:02:05.632Z,3.53
2023-02-20T08:04:37.060Z,3.30
2023-02-20T08:07:03.906Z,3.30
2023-02-20T08:09:33.027Z,2.90
2023-02-20T08:12:04.679Z,2.30
2023-02-20T08:14:31.519Z,2.90
2023-02-20T08:17:00.389Z,2.83
2023-02-20T08:19:32.247Z,2.73
2023-02-20T08:22:05.731Z,2.80
2023-02-20T08:24:34.462Z,2.93
2023-02-20T08:27:03.515Z,2.53
2023-02-20T08:29:30.343Z,2.83
2023-02-20T08:31:59.541Z,3.83
2023-02-20T08:34:31.084Z,2.53
2023-02-20T08:36:57.816Z,2.90
2023-02-20T08:39:29.225Z,2.30
2023-02-20T08:42:03.298Z,2.57
2023-02-20T08:44:32.276Z,2.20
2023-02-20T08:47:01.483Z,2.70
2023-02-20T08:49:30.478Z,2.40
2023-02-20T08:51:59.261Z,2.23
2023-02-20T08:54:28.902Z,2.60
2023-02-20T08:56:55.583Z,2.50
2023-02-20T08:59:24.477Z,2.70
2023-02-20T09:01:51.092Z,2.47
2023-02-20T09:04:21.478Z,2.43
2023-02-20T09:06:50.808Z,2.63
2023-02-20T09:09:19.952Z,2.53
2023-02-20T09:11:46.856Z,2.90
2023-02-20T09:14:18.497Z,1.80
2023-02-20T09:16:47.189Z,1.87
2023-02-20T09:19:17.819Z,2.73
2023-02-20T09:21:48.710Z,3.40
2023-02-20T09:24:18.139Z,2.53
2023-02-20T09:26:46.991Z,2.47
2023-02-20T09:29:16.349Z,1.90
2023-02-20T09:31:45.423Z,1.87
2023-02-20T09:34:14.228Z,2.30
2023-02-20T09:36:43.345Z,2.83
2023-02-20T09:39:17.803Z,2.50
2023-02-20T09:42:21.073Z,2.70
2023-02-20T09:44:53.726Z,2.70
2023-02-20T09:47:32.844Z,1.80
2023-02-20T09:50:14.858Z,3.80
2023-02-20T09:52:48.329Z,2.60
2023-02-20T09:55:22.724Z,2.90
2023-02-20T09:57:57.834Z,2.00
2023-02-20T10:00:36.403Z,2.90
2023-02-20T10:03:20.830Z,2.67
2023-02-20T10:05:53.621Z,2.50
2023-02-20T10:08:25.784Z,2.73
2023-02-20T10:10:58.170Z,3.03
2023-02-20T10:13:33.729Z,4.93
2023-02-20T10:16:20.757Z,3.33
2023-02-20T10:19:01.898Z,2.90
2023-02-20T10:22:07.107Z,3.20
2023-02-20T10:24:58.012Z,2.73
2023-02-20T10:27:44.748Z,2.13
2023-02-20T10:30:23.359Z,2.07
2023-02-20T10:33:05.069Z,2.80
2023-02-20T10:36:08.356Z,2.33
2023-02-20T10:39:02.131Z,2.20
2023-02-20T10:41:43.386Z,1.80
2023-02-20T10:44:23.178Z,2.00
2023-02-20T10:46:58.160Z,1.80
2023-02-20T10:49:35.790Z,1.67
2023-02-20T10:52:16.434Z,1.60
2023-02-20T10:55:01.608Z,2.10
2023-02-20T10:57:44.170Z,2.50
2023-02-20T11:00:33.106Z,2.57
2023-02-20T11:03:12.036Z,2.30
2023-02-20T11:05:49.067Z,1.83
2023-02-20T11:08:20.844Z,1.77
2023-02-20T11:10:57.257Z,2.40
2023-02-20T11:13:28.146Z,1.40
2023-02-20T11:16:00.140Z,4.67
2023-02-20T11:18:38.366Z,9.20
2023-02-20T11:21:07.502Z,6.17
2023-02-20T11:23:41.761Z,3.70
2023-02-20T11:26:20.604Z,3.17
2023-02-20T11:29:14.968Z,2.90
2023-02-20T11:31:47.917Z,3.13
2023-02-20T11:34:20.133Z,2.20
2023-02-20T11:36:53.358Z,1.93
2023-02-20T11:39:33.742Z,2.20
2023-02-20T11:42:31.934Z,2.00
2023-02-20T11:45:22.524Z,2.03
2023-02-20T11:48:08.634Z,2.00
2023-02-20T11:50:53.348Z,1.33
2023-02-20T11:53:32.852Z,1.73
2023-02-20T11:56:19.015Z,1.63
2023-02-20T11:58:50.254Z,1.57
2023-02-20T12:01:35.131Z,1.90
2023-02-20T12:04:26.907Z,1.97
2023-02-20T12:06:58.232Z,1.97
2023-02-20T12:09:30.812Z,1.57
2023-02-20T12:12:02.705Z,1.47
2023-02-20T12:14:36.932Z,2.00
2023-02-20T12:17:19.471Z,1.60
2023-02-20T12:20:19.747Z,1.63
2023-02-20T12:23:18.622Z,2.00
2023-02-20T12:25:57.141Z,1.77
2023-02-20T12:29:03.714Z,1.90
2023-02-20T12:31:41.636Z,1.90
2023-02-20T12:34:23.193Z,1.60
2023-02-20T12:37:06.765Z,1.40
2023-02-20T12:40:00.574Z,1.33
2023-02-20T12:42:27.245Z,1.83
2023-02-20T12:44:59.087Z,1.17
2023-02-20T12:47:36.703Z,1.77
2023-02-20T12:50:14.780Z,1.00
2023-02-20T12:53:07.589Z,1.13
2023-02-20T12:55:45.004Z,1.37
2023-02-20T12:58:42.214Z,1.33
2023-02-20T13:01:14.374Z,1.33
2023-02-20T13:03:58.671Z,1.40
2023-02-20T13:06:40.794Z,1.43
2023-02-20T13:09:13.574Z,1.57
2023-02-20T13:11:50.861Z,1.60
2023-02-20T13:14:31.345Z,1.60
2023-02-20T13:17:19.598Z,1.50
2023-02-20T13:19:58.322Z,1.27
2023-02-20T13:22:29.438Z,1.67
2023-02-20T13:25:33.951Z,2.00
2023-02-20T13:28:12.659Z,1.80
2023-02-20T13:30:44.993Z,2.87
2023-02-20T13:33:28.529Z,1.90
2023-02-20T13:36:02.104Z,1.80
2023-02-20T13:38:29.274Z,1.37
2023-02-20T13:40:55.839Z,1.20
2023-02-20T13:43:44.937Z,1.10
2023-02-20T13:46:20.464Z,1.40
2023-02-20T13:48:52.215Z,1.10
2023-02-20T13:51:22.246Z,1.40
2023-02-20T13:53:57.081Z,1.40
2023-02-20T13:56:30.170Z,0.80
2023-02-20T13:59:01.726Z,0.97
2023-02-20T14:01:33.253Z,1.33
2023-02-20T14:04:07.300Z,1.00
2023-02-20T14:06:57.985Z,0.93
2023-02-20T14:09:31.696Z,1.40
2023-02-20T14:12:12.806Z,1.03
2023-02-20T14:14:45.045Z,1.10
2023-02-20T14:17:23.634Z,0.90
2023-02-20T14:20:14.468Z,1.47
2023-02-20T14:22:44.323Z,1.30
2023-02-20T14:25:29.981Z,1.10
2023-02-20T14:28:13.215Z,0.70
2023-02-20T14:30:45.039Z,1.40
2023-02-20T14:33:27.458Z,1.00
2023-02-20T14:36:15.395Z,0.83
2023-02-20T14:39:17.635Z,1.00
2023-02-20T14:41:57.287Z,1.10
2023-02-20T14:44:25.185Z,0.73
2023-02-20T14:47:02.851Z,1.20
2023-02-20T14:49:37.269Z,0.97
2023-02-20T14:52:09.702Z,0.90
2023-02-20T14:54:39.896Z,1.20
2023-02-20T14:57:16.469Z,0.80
2023-02-20T14:59:45.236Z,0.70
2023-02-20T15:02:34.344Z,1.07
2023-02-20T15:05:18.291Z,1.47
2023-02-20T15:07:45.581Z,1.10
2023-02-20T15:10:38.923Z,0.97
2023-02-20T15:13:18.450Z,1.00
2023-02-20T15:15:52.161Z,0.80
2023-02-20T15:18:30.497Z,0.83
2023-02-20T15:20:57.371Z,0.83
2023-02-20T15:23:35.748Z,0.77
2023-02-20T15:26:30.456Z,0.83
2023-02-20T15:29:14.456Z,1.80
2023-02-20T15:31:41.398Z,0.90
2023-02-20T15:34:22.157Z,0.67
2023-02-20T15:36:49.715Z,0.80
2023-02-20T15:39:19.032Z,1.00
2023-02-20T15:41:50.900Z,0.80
2023-02-20T15:44:19.855Z,1.43
2023-02-20T15:46:49.649Z,0.70
2023-02-20T15:49:21.696Z,1.10
2023-02-20T15:51:52.414Z,0.87
2023-02-20T15:54:23.784Z,0.73
2023-02-20T15:56:56.273Z,1.17
2023-02-20T15:59:22.976Z,0.63
2023-02-20T16:01:52.435Z,1.30
2023-02-20T16:04:21.636Z,0.80
2023-02-20T16:06:50.686Z,0.90
2023-02-20T16:09:19.668Z,0.73
2023-02-20T16:11:47.818Z,1.00
2023-02-20T16:14:17.023Z,0.77
2023-02-20T16:16:51.258Z,0.97
2023-02-20T16:19:36.639Z,0.77
2023-02-20T16:22:13.565Z,0.87
2023-02-20T16:24:45.271Z,0.80
2023-02-20T16:27:30.629Z,1.27
2023-02-20T16:30:00.449Z,0.77
2023-02-20T16:32:29.386Z,1.20
2023-02-20T16:34:58.429Z,1.03
2023-02-20T16:37:29.015Z,1.87
2023-02-20T16:39:55.726Z,1.30
2023-02-20T16:42:35.224Z,1.80
2023-02-20T16:45:08.183Z,1.40
2023-02-20T16:47:34.909Z,1.13
2023-02-20T16:50:04.735Z,1.40
2023-02-20T16:52:36.329Z,1.20
2023-02-20T16:55:07.771Z,0.90
2023-02-20T16:57:37.100Z,1.00
2023-02-20T17:00:06.167Z,0.90
2023-02-20T17:02:32.913Z,1.60
2023-02-20T17:05:00.787Z,1.60
2023-02-20T17:07:31.261Z,1.90
2023-02-20T17:10:00.424Z,1.10
2023-02-20T17:12:32.851Z,2.10
2023-02-20T17:15:02.821Z,2.37
2023-02-20T17:17:33.241Z,2.23
2023-02-20T17:20:05.465Z,2.10
2023-02-20T17:22:35.346Z,2.20
2023-02-20T17:25:02.524Z,2.00
2023-02-20T17:27:31.897Z,2.10
2023-02-20T17:30:00.886Z,2.00
2023-02-20T17:32:33.416Z,2.83
2023-02-20T17:35:03.081Z,2.40
2023-02-20T17:37:30.675Z,2.50
2023-02-20T17:40:00.732Z,2.57
2023-02-20T17:42:37.803Z,2.37
2023-02-20T17:45:07.409Z,2.30
2023-02-20T17:47:37.571Z,2.37
2023-02-20T17:50:08.081Z,2.67
2023-02-20T17:52:45.064Z,2.73
2023-02-20T17:55:22.667Z,2.20
2023-02-20T17:57:52.069Z,2.13
2023-02-20T18:00:24.025Z,2.83
2023-02-20T18:02:51.069Z,2.20
2023-02-20T18:05:20.050Z,1.83
2023-02-20T18:07:52.138Z,2.40
2023-02-20T18:10:22.547Z,3.20
2023-02-20T18:13:03.919Z,2.20
2023-02-20T18:15:32.217Z,2.33
2023-02-20T18:18:02.260Z,2.50
2023-02-20T18:20:29.185Z,2.40
2023-02-20T18:22:58.805Z,2.17
2023-02-20T18:25:38.029Z,3.33
2023-02-20T18:28:06.063Z,2.40
2023-02-20T18:30:34.601Z,2.80
2023-02-20T18:33:04.264Z,4.03
2023-02-20T18:35:30.937Z,2.50
2023-02-20T18:37:58.799Z,2.73
2023-02-20T18:40:28.878Z,2.40
2023-02-20T18:42:58.155Z,2.87
2023-02-20T18:45:24.986Z,2.77
2023-02-20T18:47:53.691Z,1.60
2023-02-20T18:50:21.284Z,2.70
2023-02-20T18:52:49.000Z,2.63
2023-02-20T18:55:18.287Z,2.27
2023-02-20T18:57:49.174Z,2.20
2023-02-20T19:00:24.861Z,1.80
2023-02-20T19:02:57.818Z,2.43
2023-02-20T19:05:30.548Z,1.70
2023-02-20T19:08:00.284Z,1.57
2023-02-20T19:10:27.700Z,1.80
2023-02-20T19:12:59.654Z,1.83
2023-02-20T19:15:28.832Z,2.10
2023-02-20T19:18:00.342Z,2.57
2023-02-20T19:20:31.597Z,2.40
2023-02-20T19:23:04.524Z,2.10
2023-02-20T19:25:33.472Z,2.33
2023-02-20T19:28:06.091Z,2.80
2023-02-20T19:30:35.016Z,2.40
2023-02-20T19:33:09.476Z,1.53
2023-02-20T19:35:38.709Z,1.53
2023-02-20T19:38:05.352Z,2.00
2023-02-20T19:40:32.069Z,2.30
2023-02-20T19:42:58.826Z,2.20
2023-02-20T19:45:28.541Z,2.20
2023-02-20T19:47:55.202Z,2.17
2023-02-20T19:50:30.655Z,1.97
2023-02-20T19:52:58.390Z,2.50
2023-02-20T19:55:31.711Z,2.33
2023-02-20T19:57:59.886Z,2.80
2023-02-20T20:00:29.818Z,2.80
2023-02-20T20:02:58.839Z,2.20
2023-02-20T20:05:25.823Z,2.20
2023-02-20T20:07:55.119Z,2.77
2023-02-20T20:10:25.003Z,2.30
2023-02-20T20:12:54.377Z,1.60
2023-02-20T20:15:23.885Z,1.77
2023-02-20T20:17:54.094Z,2.20
2023-02-20T20:20:25.238Z,1.80
2023-02-20T20:22:55.677Z,2.40
2023-02-20T20:25:23.699Z,2.43
2023-02-20T20:27:54.304Z,2.03
2023-02-20T20:30:29.606Z,1.97
2023-02-20T20:32:59.453Z,1.97
2023-02-20T20:35:30.348Z,1.83
2023-02-20T20:37:57.993Z,1.60
2023-02-20T20:40:26.454Z,2.37
2023-02-20T20:42:56.435Z,2.20
2023-02-20T20:45:26.345Z,2.83
2023-02-20T20:47:58.450Z,2.83
2023-02-20T20:50:28.097Z,2.53
2023-02-20T20:53:03.156Z,2.47
2023-02-20T20:55:34.091Z,2.00
2023-02-20T20:58:00.819Z,1.50
2023-02-20T21:00:29.910Z,2.40
2023-02-20T21:02:59.339Z,1.60
2023-02-20T21:05:29.504Z,2.10
2023-02-20T21:08:00.283Z,1.83
2023-02-20T21:10:27.159Z,1.80
2023-02-20T21:12:58.348Z,1.70
2023-02-20T21:15:29.038Z,1.67
2023-02-20T21:18:04.102Z,1.70
2023-02-20T21:20:31.043Z,1.97
2023-02-20T21:23:03.430Z,2.13
2023-02-20T21:25:30.603Z,1.83
2023-02-20T21:28:00.034Z,1.93
2023-02-20T21:30:29.704Z,2.23
2023-02-20T21:32:56.619Z,2.23
2023-02-20T21:35:23.782Z,1.70
2023-02-20T21:37:50.565Z,1.70
2023-02-20T21:40:24.555Z,2.00
2023-02-20T21:43:09.965Z,2.03
2023-02-20T21:45:36.778Z,2.10
2023-02-20T21:48:08.451Z,2.00
2023-02-20T21:50:35.180Z,1.60
2023-02-20T21:53:06.687Z,1.60
2023-02-20T21:55:35.735Z,2.07
2023-02-20T21:58:02.870Z,2.70
2023-02-20T22:00:29.564Z,1.50
2023-02-20T22:02:58.641Z,1.83
2023-02-20T22:05:25.366Z,2.40
2023-02-20T22:08:10.872Z,1.73
2023-02-20T22:10:57.846Z,1.80
2023-02-20T22:13:43.915Z,1.97
2023-02-20T22:16:29.163Z,1.60
2023-02-20T22:19:15.161Z,2.60
2023-02-20T22:22:00.664Z,1.73
2023-02-20T22:24:45.972Z,1.70
2023-02-20T22:27:31.514Z,1.70
2023-02-20T22:30:16.958Z,1.53
2023-02-20T22:33:02.323Z,1.70
2023-02-20T22:35:48.120Z,1.97
2023-02-20T22:38:35.549Z,1.73
2023-02-20T22:41:20.925Z,2.10
2023-02-20T22:44:06.268Z,1.53
2023-02-20T22:46:51.574Z,1.87
2023-02-20T22:49:36.916Z,1.97
2023-02-20T22:52:22.279Z,2.23
2023-02-20T22:55:08.754Z,1.90
2023-02-20T22:57:54.188Z,1.83
2023-02-20T23:00:39.644Z,2.47
2023-02-20T23:03:27.857Z,2.10
2023-02-20T23:06:18.458Z,2.47
2023-02-20T23:09:07.014Z,2.17
2023-02-20T23:11:54.874Z,2.30
2023-02-20T23:14:41.069Z,2.40
2023-02-20T23:17:35.710Z,2.23
2023-02-20T23:20:34.068Z,2.40
2023-02-20T23:23:20.355Z,2.63
2023-02-20T23:26:05.913Z,2.60
2023-02-20T23:28:53.748Z,2.33
2023-02-20T23:31:49.822Z,2.13
2023-02-20T23:34:35.700Z,2.23
2023-02-20T23:37:20.947Z,2.63
2023-02-20T23:40:06.191Z,2.33
2023-02-20T23:42:51.575Z,2.00
2023-02-20T23:45:39.504Z,2.70
2023-02-20T23:48:25.432Z,2.00
2023-02-20T23:51:10.636Z,2.00
2023-02-20T23:53:58.216Z,2.00
2023-02-20T23:56:43.985Z,2.40
2023-02-20T23:59:30.360Z,1.90
